Time;durP1;ratioP1;P1;durP2;ratioP2;P2;SDS_P1;SDS_P2;PMS_P1;PMS_P2;Temp;Humidity;BMP_temperature;BMP_pressure;BME280_temperature;BME280_humidity;BME280_pressure;Samples;Min_cycle;Max_cycle;Signal;HPM_P1;HPM_P2
2021/10/07 00:02:17;;;;;;;14.10;10.30;;;11.80;99.90;;;;;;5072430;28;20415;-50
2021/10/07 00:04:44;;;;;;;12.43;10.97;;;11.80;99.90;;;;;;5073153;28;20501;-52
2021/10/07 00:07:12;;;;;;;13.83;11.57;;;11.70;99.90;;;;;;5072942;28;20450;-50
2021/10/07 00:09:40;;;;;;;15.53;11.70;;;11.70;99.90;;;;;;5071529;28;20503;-52
2021/10/07 00:12:09;;;;;;;14.13;11.33;;;11.80;99.90;;;;;;5073472;28;20458;-52
2021/10/07 00:14:36;;;;;;;15.50;10.17;;;11.70;99.90;;;;;;5075042;28;20442;-51
2021/10/07 00:17:03;;;;;;;11.83;9.37;;;11.70;99.90;;;;;;5074804;28;20520;-51
2021/10/07 00:19:32;;;;;;;11.60;10.10;;;11.80;99.90;;;;;;5074127;28;20569;-52
2021/10/07 00:21:58;;;;;;;11.27;10.17;;;11.90;99.90;;;;;;5072428;28;20522;-50
2021/10/07 00:24:25;;;;;;;12.03;9.67;;;11.70;99.90;;;;;;5071815;28;20453;-50
2021/10/07 00:26:52;;;;;;;16.10;11.03;;;11.60;99.90;;;;;;5071891;28;20541;-51
2021/10/07 00:29:36;;;;;;;10.03;9.07;;;11.50;99.90;;;;;;5053975;28;20458;-51
2021/10/07 00:32:06;;;;;;;12.93;10.50;;;11.60;99.90;;;;;;5054577;28;20429;-51
2021/10/07 00:34:49;;;;;;;16.67;9.97;;;11.60;99.90;;;;;;5054587;28;21002;-51
2021/10/07 00:37:27;;;;;;;14.80;12.00;;;11.60;99.90;;;;;;5072347;28;20531;-51
2021/10/07 00:39:53;;;;;;;11.50;10.30;;;11.50;99.90;;;;;;5071987;28;20489;-51
2021/10/07 00:42:22;;;;;;;11.23;10.00;;;11.00;99.90;;;;;;5054073;28;20865;-51
2021/10/07 00:44:49;;;;;;;12.37;10.07;;;11.50;99.90;;;;;;5071982;28;20452;-52
2021/10/07 00:47:17;;;;;;;14.63;11.03;;;11.30;99.90;;;;;;5071914;28;20534;-52
2021/10/07 00:49:46;;;;;;;10.63;9.63;;;11.40;99.90;;;;;;5071539;28;20440;-50
2021/10/07 00:52:17;;;;;;;13.40;12.00;;;11.40;99.90;;;;;;5053868;28;20931;-50
2021/10/07 00:54:45;;;;;;;10.83;9.30;;;11.40;99.90;;;;;;5054070;28;21003;-50
2021/10/07 00:57:17;;;;;;;12.40;9.70;;;11.40;99.90;;;;;;5053791;28;20558;-51
2021/10/07 00:59:43;;;;;;;11.67;10.50;;;10.90;99.90;;;;;;5053277;28;20483;-51
2021/10/07 01:02:10;;;;;;;12.87;10.33;;;11.30;99.90;;;;;;5053847;28;21024;-51
2021/10/07 01:04:37;;;;;;;11.57;10.00;;;11.00;99.90;;;;;;5071720;28;20535;-51
2021/10/07 01:07:07;;;;;;;15.30;9.87;;;11.90;99.90;;;;;;5075099;28;20528;-51
2021/10/07 01:09:35;;;;;;;12.93;10.60;;;11.20;99.90;;;;;;5071906;28;20410;-52
2021/10/07 01:12:05;;;;;;;11.50;10.03;;;11.20;99.90;;;;;;5053734;28;20534;-49
2021/10/07 01:14:34;;;;;;;13.37;9.80;;;11.20;99.90;;;;;;5053639;28;20545;-50
2021/10/07 01:17:01;;;;;;;11.47;10.33;;;11.40;99.90;;;;;;5071504;28;20482;-51
2021/10/07 01:19:28;;;;;;;11.43;10.30;;;11.20;99.90;;;;;;5071053;28;20415;-50
2021/10/07 01:21:57;;;;;;;10.83;9.67;;;11.40;99.90;;;;;;5071593;28;20470;-51
2021/10/07 01:24:27;;;;;;;12.50;10.13;;;11.10;99.90;;;;;;5071552;28;20426;-51
2021/10/07 01:26:57;;;;;;;10.73;9.43;;;11.20;99.90;;;;;;5071622;28;20489;-51
2021/10/07 01:29:24;;;;;;;14.80;10.80;;;11.10;99.90;;;;;;5053358;28;20438;-50
2021/10/07 01:31:53;;;;;;;10.43;9.43;;;11.10;99.90;;;;;;5071355;28;20505;-51
2021/10/07 01:34:26;;;;;;;10.87;9.77;;;11.10;99.90;;;;;;5071598;28;20551;-51
2021/10/07 01:36:55;;;;;;;13.77;11.50;;;10.80;99.90;;;;;;5071338;28;20553;-50
2021/10/07 01:39:26;;;;;;;13.10;10.87;;;11.00;99.90;;;;;;5074859;28;20457;-51
2021/10/07 01:41:54;;;;;;;11.50;10.30;;;11.00;99.90;;;;;;5075019;28;20881;-51
2021/10/07 01:44:22;;;;;;;23.43;11.00;;;10.90;99.90;;;;;;5057745;28;20483;-52
2021/10/07 01:46:50;;;;;;;12.27;10.27;;;11.00;99.90;;;;;;5075796;28;20429;-50
2021/10/07 01:49:17;;;;;;;11.20;9.67;;;10.90;99.90;;;;;;5057282;28;20537;-51
2021/10/07 01:51:44;;;;;;;16.63;10.33;;;10.90;99.90;;;;;;5075293;28;20496;-50
2021/10/07 01:54:11;;;;;;;11.97;10.67;;;11.00;99.90;;;;;;5057160;28;20420;-51
2021/10/07 01:56:47;;;;;;;11.80;10.50;;;10.80;99.90;;;;;;5075217;28;20473;-50
2021/10/07 01:59:19;;;;;;;13.53;11.53;;;11.10;99.90;;;;;;5056952;28;21017;-50
2021/10/07 02:01:45;;;;;;;11.70;9.87;;;10.80;99.90;;;;;;5074883;28;20513;-51
2021/10/07 02:04:14;;;;;;;11.50;10.20;;;10.70;99.90;;;;;;5074960;28;20518;-51
2021/10/07 02:06:41;;;;;;;11.83;9.90;;;11.10;99.90;;;;;;5057009;28;20568;-52
2021/10/07 02:09:08;;;;;;;13.10;9.53;;;10.80;99.90;;;;;;5074587;28;20523;-50
2021/10/07 02:11:36;;;;;;;17.03;10.57;;;10.80;99.90;;;;;;5074814;28;20479;-52
2021/10/07 02:14:05;;;;;;;11.27;10.07;;;10.80;99.90;;;;;;5074771;28;20440;-50
2021/10/07 02:16:32;;;;;;;12.43;9.83;;;10.80;99.90;;;;;;5074731;28;20454;-52
2021/10/07 02:18:58;;;;;;;12.90;9.97;;;10.80;99.90;;;;;;5074237;28;20909;-50
2021/10/07 02:21:26;;;;;;;12.60;10.30;;;10.80;99.90;;;;;;5074791;28;20512;-52
2021/10/07 02:23:53;;;;;;;14.00;10.50;;;10.60;99.90;;;;;;5057883;28;20508;-51
2021/10/07 02:26:20;;;;;;;11.20;9.60;;;10.70;99.90;;;;;;5078050;28;20433;-52
2021/10/07 02:28:46;;;;;;;10.60;9.13;;;10.80;99.90;;;;;;5074274;28;20457;-52
2021/10/07 02:31:14;;;;;;;11.53;9.77;;;10.70;99.90;;;;;;5056434;28;20525;-51
2021/10/07 02:33:41;;;;;;;13.37;10.40;;;10.70;99.90;;;;;;5074398;28;20457;-51
2021/10/07 02:36:08;;;;;;;14.13;10.47;;;10.70;99.90;;;;;;5074465;28;20429;-51
2021/10/07 02:38:35;;;;;;;12.30;9.80;;;10.70;99.90;;;;;;5080784;22;20581;-52
2021/10/07 02:41:02;;;;;;;14.00;11.83;;;10.60;99.90;;;;;;5054166;28;20657;-50
2021/10/07 02:43:28;;;;;;;15.03;10.17;;;11.10;99.90;;;;;;5036251;28;20941;-51
2021/10/07 02:45:56;;;;;;;12.90;10.37;;;10.40;99.90;;;;;;5054165;28;20427;-51
2021/10/07 02:48:24;;;;;;;11.07;9.97;;;10.80;99.90;;;;;;5053348;28;20527;-50
2021/10/07 02:50:53;;;;;;;17.00;10.67;;;10.50;99.90;;;;;;5036058;28;20458;-51
2021/10/07 02:53:21;;;;;;;11.60;10.40;;;10.20;99.90;;;;;;5036132;28;20973;-51
2021/10/07 02:55:48;;;;;;;16.70;11.77;;;10.70;99.90;;;;;;5054041;28;20954;-50
2021/10/07 02:58:16;;;;;;;11.40;10.13;;;10.20;99.90;;;;;;5053605;28;20530;-50
2021/10/07 03:00:45;;;;;;;12.93;10.83;;;11.00;99.90;;;;;;5036066;28;20461;-51
2021/10/07 03:03:12;;;;;;;11.60;10.37;;;10.80;99.90;;;;;;5035926;28;20536;-51
2021/10/07 03:05:40;;;;;;;13.17;10.00;;;10.50;99.90;;;;;;5053711;28;20997;-51
2021/10/07 03:08:07;;;;;;;11.37;10.10;;;10.40;99.90;;;;;;5053296;28;21077;-50
2021/10/07 03:10:33;;;;;;;12.63;9.23;;;10.80;99.90;;;;;;5053888;28;20488;-51
2021/10/07 03:13:00;;;;;;;13.07;9.47;;;10.80;99.90;;;;;;5053472;28;20430;-51
2021/10/07 03:15:27;;;;;;;11.17;9.67;;;10.50;99.90;;;;;;5053400;28;20438;-51
2021/10/07 03:17:53;;;;;;;13.93;9.73;;;10.80;99.90;;;;;;5053043;28;20546;-51
2021/10/07 03:20:20;;;;;;;11.53;10.33;;;10.70;99.90;;;;;;5053309;28;21016;-51
2021/10/07 03:22:48;;;;;;;12.70;10.60;;;10.50;99.90;;;;;;5053350;28;20522;-51
2021/10/07 03:25:15;;;;;;;13.50;10.40;;;10.70;99.90;;;;;;5053506;28;20526;-50
2021/10/07 03:27:42;;;;;;;14.27;11.50;;;10.60;99.90;;;;;;5052817;28;20454;-51
2021/10/07 03:30:10;;;;;;;11.27;10.07;;;10.70;99.90;;;;;;5035247;28;20479;-51
2021/10/07 03:32:37;;;;;;;11.90;10.67;;;10.30;99.90;;;;;;5053174;28;20471;-50
2021/10/07 03:35:05;;;;;;;11.90;9.90;;;10.70;99.90;;;;;;5053197;28;20529;-51
2021/10/07 03:37:31;;;;;;;14.00;11.20;;;10.30;99.90;;;;;;5034992;28;20569;-51
2021/10/07 03:40:02;;;;;;;11.10;9.07;;;10.70;99.90;;;;;;5052579;28;20441;-51
2021/10/07 03:42:29;;;;;;;14.00;10.70;;;10.20;99.90;;;;;;5035080;28;20534;-51
2021/10/07 03:44:55;;;;;;;11.50;9.90;;;10.20;99.90;;;;;;5035000;28;20454;-50
2021/10/07 03:47:22;;;;;;;11.10;10.00;;;10.50;99.90;;;;;;5052700;28;20541;-50
2021/10/07 03:49:51;;;;;;;12.23;9.53;;;9.80;99.90;;;;;;5052647;28;20500;-51
2021/10/07 03:52:18;;;;;;;11.27;10.10;;;10.20;99.90;;;;;;5052742;28;21010;-51
2021/10/07 03:54:45;;;;;;;11.37;10.10;;;9.90;99.90;;;;;;5052998;28;20871;-51
2021/10/07 03:57:13;;;;;;;12.07;10.60;;;10.70;99.90;;;;;;5034897;28;20478;-50
2021/10/07 03:59:39;;;;;;;12.70;10.70;;;10.20;99.90;;;;;;5034198;28;20490;-51
2021/10/07 04:02:06;;;;;;;12.77;11.47;;;10.10;99.90;;;;;;5052120;28;20475;-50
2021/10/07 04:04:33;;;;;;;17.30;11.23;;;10.50;99.90;;;;;;5034698;28;20490;-50
2021/10/07 04:07:00;;;;;;;10.93;9.33;;;10.50;99.90;;;;;;5052473;28;20455;-51
2021/10/07 04:09:29;;;;;;;14.83;10.57;;;10.60;99.90;;;;;;5052055;28;20461;-51
2021/10/07 04:11:56;;;;;;;14.00;10.73;;;10.60;99.90;;;;;;5034816;28;21013;-51
2021/10/07 04:14:24;;;;;;;15.80;10.53;;;10.40;99.90;;;;;;5052343;28;20435;-51
2021/10/07 04:16:50;;;;;;;11.53;10.40;;;10.30;99.90;;;;;;5052524;28;20512;-50
2021/10/07 04:19:18;;;;;;;12.40;9.77;;;10.20;99.90;;;;;;5051856;28;20497;-51
2021/10/07 04:21:45;;;;;;;11.53;10.33;;;10.30;99.90;;;;;;5052116;28;20611;-51
2021/10/07 04:24:12;;;;;;;15.77;12.20;;;10.50;99.90;;;;;;5034489;28;20943;-51
2021/10/07 04:26:38;;;;;;;13.63;10.77;;;10.00;99.90;;;;;;5051868;28;20520;-50
2021/10/07 04:29:05;;;;;;;14.50;11.90;;;9.60;99.90;;;;;;5051689;28;20416;-51
2021/10/07 04:31:33;;;;;;;13.60;10.43;;;10.10;99.90;;;;;;5034063;28;20409;-51
2021/10/07 04:34:01;;;;;;;11.30;10.10;;;10.40;99.90;;;;;;5052118;28;20462;-51
2021/10/07 04:36:28;;;;;;;15.87;13.50;;;10.10;99.90;;;;;;5051897;28;20489;-51
2021/10/07 04:38:58;;;;;;;14.37;11.07;;;9.70;99.90;;;;;;5051776;28;20462;-50
2021/10/07 04:41:25;;;;;;;21.77;12.60;;;9.90;99.90;;;;;;5051671;28;20478;-50
2021/10/07 04:43:51;;;;;;;17.40;12.07;;;9.80;99.90;;;;;;5051987;28;20431;-51
2021/10/07 04:46:21;;;;;;;18.53;12.90;;;10.20;99.90;;;;;;5033433;28;20941;-51
2021/10/07 04:48:49;;;;;;;13.37;12.00;;;9.70;99.90;;;;;;5051523;28;20447;-51
2021/10/07 04:51:17;;;;;;;20.00;14.60;;;10.30;99.90;;;;;;5051672;28;20522;-51
2021/10/07 04:53:44;;;;;;;13.50;11.90;;;10.00;99.90;;;;;;5051493;28;20992;-51
2021/10/07 04:56:10;;;;;;;15.50;10.40;;;9.90;99.90;;;;;;5033910;28;20417;-51
2021/10/07 04:58:39;;;;;;;16.00;12.13;;;9.90;99.90;;;;;;5051329;28;20958;-51
2021/10/07 05:01:06;;;;;;;16.00;11.53;;;10.20;99.90;;;;;;5051356;28;20639;-51
2021/10/07 05:03:33;;;;;;;16.17;11.47;;;9.50;99.90;;;;;;5033733;28;20789;-51
2021/10/07 05:06:08;;;;;;;18.37;11.53;;;9.70;99.90;;;;;;5051489;28;20520;-50
2021/10/07 05:08:36;;;;;;;12.43;11.13;;;10.10;99.90;;;;;;5051170;28;20515;-51
2021/10/07 05:11:05;;;;;;;12.77;10.30;;;9.80;99.90;;;;;;5051379;28;20437;-51
2021/10/07 05:13:32;;;;;;;19.23;12.77;;;9.80;99.90;;;;;;5051076;28;20426;-51
2021/10/07 05:16:14;;;;;;;11.80;10.60;;;10.00;99.90;;;;;;5051110;28;20484;-51
2021/10/07 05:18:40;;;;;;;18.63;11.20;;;9.90;99.90;;;;;;5051047;28;20464;-51
2021/10/07 05:21:11;;;;;;;14.27;12.40;;;10.30;99.90;;;;;;5033824;28;20908;-51
2021/10/07 05:23:38;;;;;;;14.67;11.30;;;9.80;99.90;;;;;;5051005;28;20441;-51
2021/10/07 05:26:05;;;;;;;12.53;11.23;;;10.00;99.90;;;;;;5050970;28;20511;-50
2021/10/07 05:28:32;;;;;;;17.37;12.40;;;10.10;99.90;;;;;;5032191;28;20473;-52
2021/10/07 05:30:59;;;;;;;13.60;10.30;;;9.80;99.90;;;;;;5050735;28;20514;-50
2021/10/07 05:33:25;;;;;;;17.53;13.03;;;10.20;99.90;;;;;;5050748;28;20526;-50
2021/10/07 05:35:52;;;;;;;17.30;12.47;;;9.30;99.90;;;;;;5032545;28;20458;-50
2021/10/07 05:38:20;;;;;;;16.90;12.47;;;10.00;99.90;;;;;;5049536;28;20472;-53
2021/10/07 05:40:49;;;;;;;15.07;12.00;;;9.50;99.90;;;;;;5050633;28;20525;-51
2021/10/07 05:43:16;;;;;;;17.20;11.13;;;9.80;99.90;;;;;;5050393;28;20431;-51
2021/10/07 05:45:43;;;;;;;18.90;11.43;;;9.70;99.90;;;;;;5050416;28;20522;-51
2021/10/07 05:48:10;;;;;;;16.43;11.60;;;9.70;99.90;;;;;;5049777;28;20562;-51
2021/10/07 05:50:36;;;;;;;15.50;11.20;;;9.70;99.90;;;;;;5050631;28;20956;-51
2021/10/07 05:53:03;;;;;;;15.17;12.47;;;9.70;99.90;;;;;;5050901;28;20530;-51
2021/10/07 05:55:31;;;;;;;14.93;11.33;;;9.40;99.90;;;;;;5050663;28;20441;-51
2021/10/07 05:57:58;;;;;;;14.63;13.03;;;9.70;99.90;;;;;;5050783;28;20490;-51
2021/10/07 06:00:25;;;;;;;17.00;12.40;;;10.10;99.90;;;;;;5033189;28;20450;-51
2021/10/07 06:02:51;;;;;;;21.47;13.70;;;10.00;99.90;;;;;;5050731;28;20565;-51
2021/10/07 06:05:18;;;;;;;21.60;12.83;;;9.90;99.90;;;;;;5032867;28;20454;-51
2021/10/07 06:07:45;;;;;;;18.33;12.50;;;10.30;99.90;;;;;;5032060;28;20947;-51
2021/10/07 06:10:14;;;;;;;18.87;13.13;;;10.10;99.90;;;;;;5050796;28;20433;-51
2021/10/07 06:12:43;;;;;;;17.03;13.33;;;9.90;99.90;;;;;;5050672;28;20462;-51
2021/10/07 06:15:11;;;;;;;12.37;10.93;;;10.20;99.90;;;;;;5049644;28;20792;-52
2021/10/07 06:17:39;;;;;;;14.77;11.87;;;10.80;99.90;;;;;;5050261;28;20794;-51
2021/10/07 06:20:17;;;;;;;18.50;11.50;;;10.40;99.90;;;;;;5031956;28;20482;-52
2021/10/07 06:22:44;;;;;;;12.30;10.77;;;10.30;99.90;;;;;;5050534;28;20485;-52
2021/10/07 06:25:10;;;;;;;14.07;12.57;;;10.80;99.90;;;;;;5053113;28;20430;-52
2021/10/07 06:27:37;;;;;;;17.30;10.80;;;10.40;99.90;;;;;;5019244;28;20480;-50
2021/10/07 06:30:09;;;;;;;16.07;12.90;;;10.60;99.90;;;;;;5054057;28;20427;-51
2021/10/07 06:32:36;;;;;;;16.57;12.70;;;10.70;99.90;;;;;;5035648;28;20493;-51
2021/10/07 06:35:02;;;;;;;15.60;13.03;;;10.70;99.90;;;;;;5053596;28;20494;-52
2021/10/07 06:37:29;;;;;;;20.23;13.67;;;10.90;99.90;;;;;;5053013;28;20508;-51
2021/10/07 06:39:56;;;;;;;18.63;12.70;;;10.70;99.90;;;;;;5053829;28;20894;-51
2021/10/07 06:42:23;;;;;;;19.20;13.30;;;10.60;99.90;;;;;;5036193;28;21010;-52
2021/10/07 06:44:49;;;;;;;18.53;13.23;;;11.30;99.90;;;;;;5035983;28;21032;-52
2021/10/07 06:47:17;;;;;;;18.17;12.80;;;11.40;99.90;;;;;;5035186;28;20851;-52
2021/10/07 06:49:44;;;;;;;18.30;12.27;;;11.30;99.90;;;;;;5053291;28;20431;-52
2021/10/07 06:52:11;;;;;;;17.33;12.50;;;11.20;99.90;;;;;;5053872;28;20413;-51
2021/10/07 06:54:38;;;;;;;16.30;12.20;;;11.40;99.90;;;;;;5035563;28;20450;-51
2021/10/07 06:57:04;;;;;;;12.87;11.17;;;11.40;99.90;;;;;;5053022;28;20498;-52
2021/10/07 06:59:31;;;;;;;14.67;13.00;;;11.50;99.90;;;;;;5053148;28;20507;-51
2021/10/07 07:01:58;;;;;;;14.53;12.90;;;11.10;99.90;;;;;;5053224;28;20627;-51
2021/10/07 07:04:26;;;;;;;16.43;12.60;;;10.90;99.90;;;;;;5035683;28;20460;-51
2021/10/07 07:06:54;;;;;;;17.80;12.40;;;11.30;99.90;;;;;;5053455;28;20466;-51
2021/10/07 07:09:21;;;;;;;17.77;11.10;;;11.30;99.90;;;;;;5035278;28;20448;-52
2021/10/07 07:11:48;;;;;;;11.77;10.10;;;11.30;99.90;;;;;;5053967;28;20459;-51
2021/10/07 07:14:14;;;;;;;15.10;11.43;;;11.60;99.90;;;;;;5053083;28;20943;-51
2021/10/07 07:16:41;;;;;;;13.03;11.20;;;11.60;99.90;;;;;;5034838;28;20469;-51
2021/10/07 07:19:08;;;;;;;13.17;11.20;;;11.40;99.90;;;;;;5052684;28;20408;-51
2021/10/07 07:21:37;;;;;;;12.90;11.27;;;11.30;99.90;;;;;;5052991;28;20471;-51
2021/10/07 07:24:05;;;;;;;18.37;11.57;;;11.70;99.90;;;;;;5052916;28;20458;-51
2021/10/07 07:26:35;;;;;;;20.17;9.80;;;11.50;99.90;;;;;;5034485;28;20960;-51
2021/10/07 07:29:03;;;;;;;12.10;10.20;;;11.80;99.90;;;;;;5033626;28;20537;-52
2021/10/07 07:31:30;;;;;;;11.93;10.70;;;11.50;99.90;;;;;;5053030;28;20518;-51
2021/10/07 07:33:58;;;;;;;14.40;10.73;;;11.60;99.90;;;;;;5052418;28;20921;-51
2021/10/07 07:36:26;;;;;;;13.73;9.60;;;12.00;99.90;;;;;;5051209;28;20920;-52
2021/10/07 07:38:56;;;;;;;13.37;9.97;;;12.00;99.90;;;;;;5051685;28;20492;-51
2021/10/07 07:41:23;;;;;;;12.50;11.17;;;11.70;99.90;;;;;;5054771;28;20454;-51
2021/10/07 07:43:49;;;;;;;13.30;10.50;;;12.00;99.90;;;;;;5035073;28;20434;-52
2021/10/07 07:46:18;;;;;;;10.90;9.20;;;11.80;99.90;;;;;;5051933;28;20497;-52
2021/10/07 07:48:45;;;;;;;14.50;10.80;;;11.70;99.90;;;;;;5051837;28;20466;-52
2021/10/07 07:51:12;;;;;;;11.33;10.03;;;12.20;99.90;;;;;;5051970;28;20430;-52
2021/10/07 07:53:39;;;;;;;12.37;11.03;;;12.30;99.90;;;;;;5052013;28;20527;-51
2021/10/07 07:56:08;;;;;;;12.10;10.07;;;12.40;99.90;;;;;;5052524;28;20468;-52
2021/10/07 07:58:37;;;;;;;11.50;10.47;;;12.50;99.90;;;;;;5051565;28;20939;-52
2021/10/07 08:01:03;;;;;;;13.07;10.17;;;11.80;99.90;;;;;;5033977;28;20431;-51
2021/10/07 08:03:31;;;;;;;17.00;10.57;;;12.20;99.90;;;;;;5052429;28;20459;-52
2021/10/07 08:05:58;;;;;;;12.70;9.47;;;12.40;99.90;;;;;;5052485;28;20436;-51
2021/10/07 08:08:25;;;;;;;14.20;9.47;;;12.50;99.90;;;;;;5033547;28;20472;-51
2021/10/07 08:10:52;;;;;;;13.37;10.00;;;12.30;99.90;;;;;;5034129;28;20479;-52
2021/10/07 08:13:20;;;;;;;12.33;9.67;;;12.40;99.90;;;;;;5052547;28;20440;-52
2021/10/07 08:15:48;;;;;;;12.93;9.70;;;12.40;99.90;;;;;;5052288;28;20467;-52
2021/10/07 08:18:15;;;;;;;10.17;9.10;;;12.50;99.90;;;;;;5051537;28;20555;-52
2021/10/07 08:20:42;;;;;;;10.83;8.60;;;12.50;99.90;;;;;;5034039;28;20452;-52
2021/10/07 08:23:12;;;;;;;19.87;9.67;;;12.50;99.90;;;;;;5033606;28;20630;-52
2021/10/07 08:25:39;;;;;;;11.50;9.70;;;12.20;99.90;;;;;;5051951;28;20531;-52
2021/10/07 08:28:06;;;;;;;16.50;11.57;;;12.70;99.90;;;;;;5033453;28;20482;-52
2021/10/07 08:30:34;;;;;;;13.00;10.37;;;13.00;99.90;;;;;;5051948;28;20466;-52
2021/10/07 08:33:01;;;;;;;11.33;10.13;;;13.20;99.90;;;;;;5051910;28;20443;-52
2021/10/07 08:35:28;;;;;;;11.40;9.60;;;12.80;99.90;;;;;;5052193;28;20475;-52
2021/10/07 08:37:55;;;;;;;19.10;9.73;;;12.90;99.90;;;;;;5082485;22;20676;-53
2021/10/07 08:40:22;;;;;;;11.00;9.00;;;12.70;99.90;;;;;;5071619;28;21011;-52
2021/10/07 08:42:48;;;;;;;13.97;8.73;;;12.90;99.90;;;;;;5071777;28;20527;-51
2021/10/07 08:45:15;;;;;;;12.10;9.40;;;12.90;99.90;;;;;;5053867;28;20515;-52
2021/10/07 08:47:46;;;;;;;18.20;9.20;;;13.00;99.90;;;;;;5070735;28;20799;-53
2021/10/07 08:50:19;;;;;;;12.60;10.03;;;13.10;99.90;;;;;;5052937;28;20453;-52
2021/10/07 08:52:47;;;;;;;11.60;9.60;;;13.20;99.90;;;;;;5071316;28;20513;-52
2021/10/07 08:55:14;;;;;;;13.30;10.13;;;13.20;99.90;;;;;;5070812;28;20468;-52
2021/10/07 08:57:41;;;;;;;14.07;10.43;;;13.20;99.90;;;;;;5070608;28;20446;-54
2021/10/07 09:00:11;;;;;;;13.67;10.40;;;13.30;99.90;;;;;;5071532;28;20892;-52
2021/10/07 09:02:40;;;;;;;13.80;11.30;;;13.40;99.90;;;;;;5071341;28;20484;-53
2021/10/07 09:05:12;;;;;;;15.83;9.90;;;13.30;99.90;;;;;;5071341;28;20485;-52
2021/10/07 09:08:01;;;;;;;14.07;10.40;;;13.40;99.90;;;;;;5071005;28;20481;-52
2021/10/07 09:10:36;;;;;;;12.47;9.80;;;13.50;99.90;;;;;;5070896;28;20418;-52
2021/10/07 09:13:11;;;;;;;12.40;8.87;;;13.50;99.90;;;;;;5071101;28;20526;-52
2021/10/07 09:15:43;;;;;;;12.90;8.57;;;13.70;99.90;;;;;;5053028;28;20462;-52
2021/10/07 09:18:10;;;;;;;9.90;8.10;;;13.90;99.90;;;;;;5052342;28;20568;-52
2021/10/07 09:20:40;;;;;;;17.13;9.00;;;13.80;99.90;;;;;;5071118;28;20536;-53
2021/10/07 09:23:16;;;;;;;11.20;8.90;;;13.80;99.90;;;;;;5070929;28;20507;-52
2021/10/07 09:25:54;;;;;;;11.63;9.40;;;13.70;99.90;;;;;;5071153;28;20500;-53
2021/10/07 09:28:21;;;;;;;11.00;8.80;;;13.90;99.90;;;;;;5070435;28;20431;-52
2021/10/07 09:30:53;;;;;;;12.93;8.57;;;13.90;99.90;;;;;;5071186;28;20473;-52
2021/10/07 09:33:27;;;;;;;11.40;9.17;;;14.00;99.90;;;;;;5052867;28;20435;-53
2021/10/07 09:36:17;;;;;;;12.80;8.40;;;14.00;99.90;;;;;;5053291;28;20446;-53
2021/10/07 09:38:46;;;;;;;9.77;8.17;;;13.90;99.90;;;;;;5051779;28;20562;-53
2021/10/07 09:41:16;;;;;;;10.30;7.50;;;14.10;99.90;;;;;;5070504;28;20448;-52
2021/10/07 09:43:45;;;;;;;11.63;7.60;;;14.10;99.90;;;;;;5070813;28;20627;-53
2021/10/07 09:46:12;;;;;;;8.97;6.80;;;14.20;99.90;;;;;;5070743;28;20457;-51
2021/10/07 09:48:40;;;;;;;6.70;5.90;;;13.90;99.90;;;;;;5070401;28;20538;-52
2021/10/07 09:51:18;;;;;;;11.60;6.40;;;14.20;99.90;;;;;;5070439;28;20434;-53
2021/10/07 09:53:46;;;;;;;9.80;6.50;;;14.40;99.90;;;;;;5052869;28;20453;-52
2021/10/07 09:56:26;;;;;;;13.43;7.40;;;14.80;99.90;;;;;;5070314;28;20432;-50
2021/10/07 09:58:54;;;;;;;9.17;6.70;;;14.40;99.90;;;;;;5071231;28;20544;-51
2021/10/07 10:01:22;;;;;;;8.33;6.60;;;14.40;99.90;;;;;;5056264;28;20560;-53
2021/10/07 10:03:49;;;;;;;7.10;5.90;;;14.70;99.90;;;;;;5056459;28;20480;-53
2021/10/07 10:06:17;;;;;;;12.80;7.20;;;14.50;99.90;;;;;;5074163;28;20519;-54
2021/10/07 10:08:44;;;;;;;8.40;6.43;;;14.80;99.90;;;;;;5073656;28;20473;-53
2021/10/07 10:11:11;;;;;;;6.23;5.60;;;14.60;99.90;;;;;;5055906;28;20885;-53
2021/10/07 10:13:38;;;;;;;7.90;5.77;;;14.90;99.90;;;;;;5074406;28;20454;-52
2021/10/07 10:16:05;;;;;;;6.63;6.03;;;14.70;99.90;;;;;;5074060;28;20436;-53
2021/10/07 10:18:33;;;;;;;6.30;5.67;;;14.70;99.90;;;;;;5073980;28;20603;-53
2021/10/07 10:21:04;;;;;;;12.07;4.50;;;14.70;99.90;;;;;;5074218;28;20918;-53
2021/10/07 10:23:38;;;;;;;5.87;5.10;;;14.80;99.90;;;;;;5056047;28;20473;-52
2021/10/07 10:26:11;;;;;;;7.20;6.20;;;14.80;99.90;;;;;;5056235;28;20457;-53
2021/10/07 10:28:53;;;;;;;7.50;4.90;;;14.80;99.90;;;;;;5055590;28;20446;-52
2021/10/07 10:31:33;;;;;;;5.40;4.43;;;14.80;99.90;;;;;;5073992;28;20432;-53
2021/10/07 10:34:08;;;;;;;8.03;4.90;;;14.90;99.90;;;;;;5056236;28;20995;-52
2021/10/07 10:36:38;;;;;;;6.10;4.83;;;14.90;99.90;;;;;;5056166;28;20555;-52
2021/10/07 10:39:10;;;;;;;7.63;4.57;;;14.90;99.90;;;;;;5073838;28;20504;-59
2021/10/07 10:41:49;;;;;;;8.03;4.30;;;15.00;99.90;;;;;;5074121;28;20490;-53
2021/10/07 10:44:40;;;;;;;9.60;4.70;;;15.00;99.90;;;;;;5073577;28;20448;-52
2021/10/07 10:47:31;;;;;;;10.20;5.13;;;15.10;99.90;;;;;;5073113;28;20432;-53
2021/10/07 10:50:07;;;;;;;6.90;3.77;;;15.10;99.90;;;;;;5036001;28;20441;-51
2021/10/07 10:52:37;;;;;;;5.77;3.77;;;15.20;99.90;;;;;;5073180;28;20533;-52
2021/10/07 10:55:09;;;;;;;9.53;4.97;;;15.20;99.90;;;;;;5072930;28;20527;-52
2021/10/07 10:57:37;;;;;;;8.93;4.00;;;15.50;99.90;;;;;;5055167;28;20478;-52
2021/10/07 11:00:09;;;;;;;4.40;3.97;;;15.30;99.90;;;;;;5073542;28;20436;-52
2021/10/07 11:02:37;;;;;;;4.57;3.33;;;15.30;99.90;;;;;;5072706;28;20555;-52
2021/10/07 11:05:16;;;;;;;8.77;4.83;;;15.30;99.90;;;;;;5073815;28;20424;-53
2021/10/07 11:07:44;;;;;;;6.03;3.90;;;15.40;99.90;;;;;;5072371;28;20457;-53
2021/10/07 11:10:18;;;;;;;5.73;3.90;;;15.40;99.90;;;;;;5073114;28;20853;-52
2021/10/07 11:12:53;;;;;;;7.80;4.20;;;15.40;99.90;;;;;;5055215;28;20456;-51
2021/10/07 11:15:21;;;;;;;7.83;4.20;;;15.50;99.90;;;;;;5054841;28;21010;-53
2021/10/07 11:17:49;;;;;;;7.97;4.20;;;15.50;99.90;;;;;;5072689;28;20456;-55
2021/10/07 11:20:22;;;;;;;5.80;4.50;;;15.50;99.90;;;;;;5073064;28;20453;-53
2021/10/07 11:23:01;;;;;;;4.83;3.50;;;15.60;99.90;;;;;;5072981;28;20589;-52
2021/10/07 11:25:31;;;;;;;6.70;2.30;;;15.60;99.90;;;;;;5054717;28;20450;-53
2021/10/07 11:27:58;;;;;;;7.27;2.70;;;15.60;99.90;;;;;;5054774;28;20470;-52
2021/10/07 11:30:25;;;;;;;4.57;2.40;;;15.70;99.90;;;;;;5072393;28;20450;-55
2021/10/07 11:32:52;;;;;;;4.60;2.27;;;15.80;99.90;;;;;;5054188;28;20437;-54
2021/10/07 11:35:21;;;;;;;5.57;2.93;;;15.80;99.90;;;;;;5072260;28;20513;-52
2021/10/07 11:38:09;;;;;;;3.43;2.87;;;16.30;99.90;;;;;;5053969;28;20974;-51
2021/10/07 11:40:45;;;;;;;4.53;2.93;;;15.90;99.90;;;;;;5072453;28;20443;-55
2021/10/07 11:43:14;;;;;;;7.30;3.07;;;15.90;99.90;;;;;;5071937;28;20535;-52
2021/10/07 11:45:43;;;;;;;4.07;2.70;;;15.90;99.90;;;;;;5054667;28;20508;-52
2021/10/07 11:48:13;;;;;;;3.60;2.53;;;15.90;99.90;;;;;;5071978;28;20461;-52
2021/10/07 11:50:43;;;;;;;6.90;3.27;;;15.90;99.90;;;;;;5053988;28;20443;-52
2021/10/07 11:53:13;;;;;;;5.60;3.90;;;15.90;99.90;;;;;;5053276;28;20452;-53
2021/10/07 11:55:43;;;;;;;7.73;3.07;;;15.90;99.90;;;;;;5072344;28;20430;-53
2021/10/07 11:58:11;;;;;;;5.87;3.60;;;15.90;99.90;;;;;;5072070;28;20767;-52
2021/10/07 12:00:44;;;;;;;3.67;3.00;;;15.90;99.90;;;;;;5072484;28;20404;-52
2021/10/07 12:03:20;;;;;;;5.80;3.47;;;15.90;99.90;;;;;;5071909;28;20476;-53
2021/10/07 12:05:53;;;;;;;14.03;3.27;;;15.90;99.90;;;;;;5053792;28;20777;-52
2021/10/07 12:08:21;;;;;;;10.50;3.47;;;15.90;99.90;;;;;;5071638;28;20428;-53
2021/10/07 12:10:51;;;;;;;4.80;3.27;;;15.90;99.90;;;;;;5054329;28;20474;-53
2021/10/07 12:13:20;;;;;;;5.37;2.87;;;15.90;99.90;;;;;;5071934;28;20426;-53
2021/10/07 12:15:49;;;;;;;6.20;2.83;;;15.90;99.90;;;;;;5071811;28;20430;-53
2021/10/07 12:18:16;;;;;;;3.80;3.17;;;16.00;99.90;;;;;;5053202;28;20482;-53
2021/10/07 12:21:05;;;;;;;2.77;2.27;;;16.00;99.90;;;;;;5071556;28;20405;-54
2021/10/07 12:23:48;;;;;;;6.13;2.40;;;16.00;99.90;;;;;;5071721;28;20459;-53
2021/10/07 12:26:23;;;;;;;6.57;2.50;;;16.10;99.90;;;;;;5053823;28;20420;-52
2021/10/07 12:28:51;;;;;;;3.50;2.30;;;16.10;99.90;;;;;;5071468;28;20446;-52
2021/10/07 12:31:23;;;;;;;4.80;2.17;;;16.20;99.90;;;;;;5054493;28;20452;-52
2021/10/07 12:33:58;;;;;;;4.07;2.30;;;16.20;99.90;;;;;;5071864;28;20496;-52
2021/10/07 12:36:35;;;;;;;3.03;2.40;;;16.30;99.90;;;;;;5071200;28;20885;-53
2021/10/07 12:39:04;;;;;;;5.70;2.20;;;16.30;99.90;;;;;;5070832;28;20503;-52
2021/10/07 12:41:34;;;;;;;4.53;2.50;;;16.40;99.90;;;;;;5071229;28;20558;-53
2021/10/07 12:44:01;;;;;;;5.40;2.03;;;16.40;99.90;;;;;;5070994;28;20519;-53
2021/10/07 12:46:29;;;;;;;6.13;2.10;;;16.40;99.70;;;;;;5053573;28;20560;-52